sensor_id;sensor_type;location;lat;lon;timestamp;temperature;humidity
27671;DHT22;15077;49.704;9.908;2023-04-24T00:00:04;14.80;65.20
27671;DHT22;15077;49.704;9.908;2023-04-24T00:02:32;14.80;65.20
27671;DHT22;15077;49.704;9.908;2023-04-24T00:05:01;14.80;65.10
27671;DHT22;15077;49.704;9.908;2023-04-24T00:07:27;14.80;65.20
27671;DHT22;15077;49.704;9.908;2023-04-24T00:09:54;14.80;65.00
27671;DHT22;15077;49.704;9.908;2023-04-24T00:12:20;14.80;65.10
27671;DHT22;15077;49.704;9.908;2023-04-24T00:14:45;14.80;65.10
27671;DHT22;15077;49.704;9.908;2023-04-24T00:17:11;14.80;65.00
27671;DHT22;15077;49.704;9.908;2023-04-24T00:19:37;14.70;65.10
27671;DHT22;15077;49.704;9.908;2023-04-24T00:22:03;14.70;65.00
27671;DHT22;15077;49.704;9.908;2023-04-24T00:24:29;14.70;65.10
27671;DHT22;15077;49.704;9.908;2023-04-24T00:26:55;14.70;65.10
27671;DHT22;15077;49.704;9.908;2023-04-24T00:29:21;14.70;65.20
27671;DHT22;15077;49.704;9.908;2023-04-24T00:31:47;14.70;65.00
27671;DHT22;15077;49.704;9.908;2023-04-24T00:34:13;14.70;65.10
27671;DHT22;15077;49.704;9.908;2023-04-24T00:36:40;14.60;65.00
27671;DHT22;15077;49.704;9.908;2023-04-24T00:39:07;14.60;65.20
27671;DHT22;15077;49.704;9.908;2023-04-24T00:41:35;14.60;65.00
27671;DHT22;15077;49.704;9.908;2023-04-24T00:44:03;14.60;65.00
27671;DHT22;15077;49.704;9.908;2023-04-24T00:46:30;14.60;65.00
27671;DHT22;15077;49.704;9.908;2023-04-24T00:48:56;14.60;65.60
27671;DHT22;15077;49.704;9.908;2023-04-24T00:51:24;14.60;65.00
27671;DHT22;15077;49.704;9.908;2023-04-24T00:53:50;14.60;65.00
27671;DHT22;15077;49.704;9.908;2023-04-24T00:56:17;14.60;65.00
27671;DHT22;15077;49.704;9.908;2023-04-24T00:58:44;14.60;64.90
27671;DHT22;15077;49.704;9.908;2023-04-24T01:01:10;14.60;64.90
27671;DHT22;15077;49.704;9.908;2023-04-24T01:03:37;14.60;65.00
27671;DHT22;15077;49.704;9.908;2023-04-24T01:06:04;14.70;65.70
27671;DHT22;15077;49.704;9.908;2023-04-24T01:08:30;14.60;64.90
27671;DHT22;15077;49.704;9.908;2023-04-24T01:10:57;14.60;64.80
27671;DHT22;15077;49.704;9.908;2023-04-24T01:13:23;14.60;64.90
27671;DHT22;15077;49.704;9.908;2023-04-24T01:15:49;14.60;64.80
27671;DHT22;15077;49.704;9.908;2023-04-24T01:18:15;14.60;64.90
27671;DHT22;15077;49.704;9.908;2023-04-24T01:20:42;14.60;64.80
27671;DHT22;15077;49.704;9.908;2023-04-24T01:23:10;14.60;65.10
27671;DHT22;15077;49.704;9.908;2023-04-24T01:25:36;14.60;65.00
27671;DHT22;15077;49.704;9.908;2023-04-24T01:28:03;14.60;65.30
27671;DHT22;15077;49.704;9.908;2023-04-24T01:30:29;14.50;65.30
27671;DHT22;15077;49.704;9.908;2023-04-24T01:32:56;14.50;65.30
27671;DHT22;15077;49.704;9.908;2023-04-24T01:35:24;14.50;65.30
27671;DHT22;15077;49.704;9.908;2023-04-24T01:37:50;14.50;65.60
27671;DHT22;15077;49.704;9.908;2023-04-24T01:40:16;14.50;65.70
27671;DHT22;15077;49.704;9.908;2023-04-24T01:42:42;14.50;65.90
27671;DHT22;15077;49.704;9.908;2023-04-24T01:45:11;14.50;65.90
27671;DHT22;15077;49.704;9.908;2023-04-24T01:47:38;14.40;66.10
27671;DHT22;15077;49.704;9.908;2023-04-24T01:50:05;14.40;66.10
27671;DHT22;15077;49.704;9.908;2023-04-24T01:52:32;14.40;65.90
27671;DHT22;15077;49.704;9.908;2023-04-24T01:55:02;14.40;65.80
27671;DHT22;15077;49.704;9.908;2023-04-24T01:57:31;14.40;65.90
27671;DHT22;15077;49.704;9.908;2023-04-24T01:59:57;14.40;65.80
27671;DHT22;15077;49.704;9.908;2023-04-24T02:02:23;14.40;65.70
27671;DHT22;15077;49.704;9.908;2023-04-24T02:04:52;14.40;65.70
27671;DHT22;15077;49.704;9.908;2023-04-24T02:07:19;14.40;66.30
27671;DHT22;15077;49.704;9.908;2023-04-24T02:09:45;14.40;65.70
27671;DHT22;15077;49.704;9.908;2023-04-24T02:12:11;14.40;65.70
27671;DHT22;15077;49.704;9.908;2023-04-24T02:14:37;14.40;65.70
27671;DHT22;15077;49.704;9.908;2023-04-24T02:17:03;14.40;65.70
27671;DHT22;15077;49.704;9.908;2023-04-24T02:19:30;14.40;65.70
27671;DHT22;15077;49.704;9.908;2023-04-24T02:21:56;14.40;65.70
27671;DHT22;15077;49.704;9.908;2023-04-24T02:24:22;14.40;66.30
27671;DHT22;15077;49.704;9.908;2023-04-24T02:26:47;14.40;65.80
27671;DHT22;15077;49.704;9.908;2023-04-24T02:29:13;14.40;65.80
27671;DHT22;15077;49.704;9.908;2023-04-24T02:31:39;14.40;65.80
27671;DHT22;15077;49.704;9.908;2023-04-24T02:34:05;14.30;65.70
27671;DHT22;15077;49.704;9.908;2023-04-24T02:36:31;14.30;65.70
27671;DHT22;15077;49.704;9.908;2023-04-24T02:38:57;14.30;65.70
27671;DHT22;15077;49.704;9.908;2023-04-24T02:41:23;14.30;65.70
27671;DHT22;15077;49.704;9.908;2023-04-24T02:43:48;14.30;65.60
27671;DHT22;15077;49.704;9.908;2023-04-24T02:46:14;14.30;65.70
27671;DHT22;15077;49.704;9.908;2023-04-24T02:48:40;14.20;65.60
27671;DHT22;15077;49.704;9.908;2023-04-24T02:51:06;14.20;65.50
27671;DHT22;15077;49.704;9.908;2023-04-24T02:53:32;14.20;65.60
27671;DHT22;15077;49.704;9.908;2023-04-24T02:55:58;14.20;65.60
27671;DHT22;15077;49.704;9.908;2023-04-24T02:58:24;14.20;65.60
27671;DHT22;15077;49.704;9.908;2023-04-24T03:00:54;14.10;65.60
27671;DHT22;15077;49.704;9.908;2023-04-24T03:03:21;14.10;65.70
27671;DHT22;15077;49.704;9.908;2023-04-24T03:05:47;14.10;65.60
27671;DHT22;15077;49.704;9.908;2023-04-24T03:08:13;14.10;65.60
27671;DHT22;15077;49.704;9.908;2023-04-24T03:10:40;14.10;65.50
27671;DHT22;15077;49.704;9.908;2023-04-24T03:13:05;14.10;65.50
27671;DHT22;15077;49.704;9.908;2023-04-24T03:15:31;14.00;65.60
27671;DHT22;15077;49.704;9.908;2023-04-24T03:17:57;14.00;65.60
27671;DHT22;15077;49.704;9.908;2023-04-24T03:20:23;14.00;65.60
27671;DHT22;15077;49.704;9.908;2023-04-24T03:22:49;14.00;65.50
27671;DHT22;15077;49.704;9.908;2023-04-24T03:25:15;14.00;65.60
27671;DHT22;15077;49.704;9.908;2023-04-24T03:27:41;14.00;65.70
27671;DHT22;15077;49.704;9.908;2023-04-24T03:30:07;13.90;65.70
27671;DHT22;15077;49.704;9.908;2023-04-24T03:32:33;13.90;65.60
27671;DHT22;15077;49.704;9.908;2023-04-24T03:34:59;13.90;65.50
27671;DHT22;15077;49.704;9.908;2023-04-24T03:37:25;13.90;65.60
27671;DHT22;15077;49.704;9.908;2023-04-24T03:39:52;13.90;65.60
27671;DHT22;15077;49.704;9.908;2023-04-24T03:42:18;13.90;65.60
27671;DHT22;15077;49.704;9.908;2023-04-24T03:44:44;13.90;65.60
27671;DHT22;15077;49.704;9.908;2023-04-24T03:47:10;13.90;65.60
27671;DHT22;15077;49.704;9.908;2023-04-24T03:49:36;13.90;65.50
27671;DHT22;15077;49.704;9.908;2023-04-24T03:52:02;13.90;65.50
27671;DHT22;15077;49.704;9.908;2023-04-24T03:54:28;13.90;66.20
27671;DHT22;15077;49.704;9.908;2023-04-24T03:56:55;13.90;65.60
27671;DHT22;15077;49.704;9.908;2023-04-24T03:59:22;13.90;65.50
27671;DHT22;15077;49.704;9.908;2023-04-24T04:01:49;13.90;65.50
27671;DHT22;15077;49.704;9.908;2023-04-24T04:04:17;13.90;65.40
27671;DHT22;15077;49.704;9.908;2023-04-24T04:06:44;13.90;65.40
27671;DHT22;15077;49.704;9.908;2023-04-24T04:09:11;13.90;65.30
27671;DHT22;15077;49.704;9.908;2023-04-24T04:11:38;13.90;65.30
27671;DHT22;15077;49.704;9.908;2023-04-24T04:14:05;13.90;65.30
27671;DHT22;15077;49.704;9.908;2023-04-24T04:16:31;13.90;65.40
27671;DHT22;15077;49.704;9.908;2023-04-24T04:18:57;13.90;65.30
27671;DHT22;15077;49.704;9.908;2023-04-24T04:21:23;13.90;65.20
27671;DHT22;15077;49.704;9.908;2023-04-24T04:23:49;13.90;65.50
27671;DHT22;15077;49.704;9.908;2023-04-24T04:26:15;13.90;65.50
27671;DHT22;15077;49.704;9.908;2023-04-24T04:28:40;13.80;65.40
27671;DHT22;15077;49.704;9.908;2023-04-24T04:31:06;13.80;65.60
27671;DHT22;15077;49.704;9.908;2023-04-24T04:33:33;13.80;65.60
27671;DHT22;15077;49.704;9.908;2023-04-24T04:36:01;13.80;65.60
27671;DHT22;15077;49.704;9.908;2023-04-24T04:38:27;13.80;65.60
27671;DHT22;15077;49.704;9.908;2023-04-24T04:40:55;13.80;65.60
27671;DHT22;15077;49.704;9.908;2023-04-24T04:43:23;13.70;65.80
27671;DHT22;15077;49.704;9.908;2023-04-24T04:45:50;13.70;66.00
27671;DHT22;15077;49.704;9.908;2023-04-24T04:48:17;13.70;66.00
27671;DHT22;15077;49.704;9.908;2023-04-24T04:50:44;13.70;66.10
27671;DHT22;15077;49.704;9.908;2023-04-24T04:53:10;13.70;66.30
27671;DHT22;15077;49.704;9.908;2023-04-24T04:55:37;13.70;66.40
27671;DHT22;15077;49.704;9.908;2023-04-24T04:58:03;13.70;66.80
27671;DHT22;15077;49.704;9.908;2023-04-24T05:00:28;13.70;67.00
27671;DHT22;15077;49.704;9.908;2023-04-24T05:02:59;13.70;67.20
27671;DHT22;15077;49.704;9.908;2023-04-24T05:05:25;13.70;67.20
27671;DHT22;15077;49.704;9.908;2023-04-24T05:07:51;13.70;67.30
27671;DHT22;15077;49.704;9.908;2023-04-24T05:10:17;13.60;67.20
27671;DHT22;15077;49.704;9.908;2023-04-24T05:12:43;13.60;67.30
27671;DHT22;15077;49.704;9.908;2023-04-24T05:15:08;13.60;67.50
27671;DHT22;15077;49.704;9.908;2023-04-24T05:17:35;13.60;67.60
27671;DHT22;15077;49.704;9.908;2023-04-24T05:20:02;13.60;67.50
27671;DHT22;15077;49.704;9.908;2023-04-24T05:22:31;13.60;67.40
27671;DHT22;15077;49.704;9.908;2023-04-24T05:24:57;13.50;67.10
27671;DHT22;15077;49.704;9.908;2023-04-24T05:27:22;13.50;67.00
27671;DHT22;15077;49.704;9.908;2023-04-24T05:29:48;13.50;66.80
27671;DHT22;15077;49.704;9.908;2023-04-24T05:32:14;13.50;66.70
27671;DHT22;15077;49.704;9.908;2023-04-24T05:34:40;13.40;66.60
27671;DHT22;15077;49.704;9.908;2023-04-24T05:37:05;13.40;66.70
27671;DHT22;15077;49.704;9.908;2023-04-24T05:39:34;13.40;66.80
27671;DHT22;15077;49.704;9.908;2023-04-24T05:42:00;13.30;66.80
27671;DHT22;15077;49.704;9.908;2023-04-24T05:44:26;13.30;66.90
27671;DHT22;15077;49.704;9.908;2023-04-24T05:46:52;13.30;66.90
27671;DHT22;15077;49.704;9.908;2023-04-24T05:49:18;13.30;66.90
27671;DHT22;15077;49.704;9.908;2023-04-24T05:51:44;13.30;66.90
27671;DHT22;15077;49.704;9.908;2023-04-24T05:54:10;13.30;67.00
27671;DHT22;15077;49.704;9.908;2023-04-24T05:56:37;13.30;66.90
27671;DHT22;15077;49.704;9.908;2023-04-24T05:59:03;13.30;66.80
27671;DHT22;15077;49.704;9.908;2023-04-24T06:01:29;13.30;66.90
27671;DHT22;15077;49.704;9.908;2023-04-24T06:03:56;13.30;66.90
27671;DHT22;15077;49.704;9.908;2023-04-24T06:06:23;13.30;66.90
27671;DHT22;15077;49.704;9.908;2023-04-24T06:08:49;13.30;67.00
27671;DHT22;15077;49.704;9.908;2023-04-24T06:11:15;13.30;66.90
27671;DHT22;15077;49.704;9.908;2023-04-24T06:13:41;13.30;67.00
27671;DHT22;15077;49.704;9.908;2023-04-24T06:16:07;13.30;67.10
27671;DHT22;15077;49.704;9.908;2023-04-24T06:18:33;13.30;67.10
27671;DHT22;15077;49.704;9.908;2023-04-24T06:20:59;13.30;67.00
27671;DHT22;15077;49.704;9.908;2023-04-24T06:23:27;13.30;67.00
27671;DHT22;15077;49.704;9.908;2023-04-24T06:25:53;13.30;66.90
27671;DHT22;15077;49.704;9.908;2023-04-24T06:28:19;13.30;66.90
27671;DHT22;15077;49.704;9.908;2023-04-24T06:30:44;13.30;66.80
27671;DHT22;15077;49.704;9.908;2023-04-24T06:33:10;13.30;66.80
27671;DHT22;15077;49.704;9.908;2023-04-24T06:35:36;13.30;66.80
27671;DHT22;15077;49.704;9.908;2023-04-24T06:38:03;13.30;66.70
27671;DHT22;15077;49.704;9.908;2023-04-24T06:40:29;13.30;66.50
27671;DHT22;15077;49.704;9.908;2023-04-24T06:42:55;13.30;66.50
27671;DHT22;15077;49.704;9.908;2023-04-24T06:45:23;13.30;66.30
27671;DHT22;15077;49.704;9.908;2023-04-24T06:47:49;13.30;66.30
27671;DHT22;15077;49.704;9.908;2023-04-24T06:50:15;13.30;66.20
27671;DHT22;15077;49.704;9.908;2023-04-24T06:52:40;13.30;66.10
27671;DHT22;15077;49.704;9.908;2023-04-24T06:55:07;13.40;66.00
27671;DHT22;15077;49.704;9.908;2023-04-24T06:57:33;13.40;66.50
27671;DHT22;15077;49.704;9.908;2023-04-24T06:59:58;13.30;65.70
27671;DHT22;15077;49.704;9.908;2023-04-24T07:02:24;13.40;65.90
27671;DHT22;15077;49.704;9.908;2023-04-24T07:04:51;13.40;65.90
27671;DHT22;15077;49.704;9.908;2023-04-24T07:07:16;13.40;65.70
27671;DHT22;15077;49.704;9.908;2023-04-24T07:09:42;13.40;65.60
27671;DHT22;15077;49.704;9.908;2023-04-24T07:12:09;13.40;65.70
27671;DHT22;15077;49.704;9.908;2023-04-24T07:14:36;13.40;65.90
27671;DHT22;15077;49.704;9.908;2023-04-24T07:17:03;13.50;66.00
27671;DHT22;15077;49.704;9.908;2023-04-24T07:19:30;13.50;65.90
27671;DHT22;15077;49.704;9.908;2023-04-24T07:21:55;13.50;65.70
27671;DHT22;15077;49.704;9.908;2023-04-24T07:24:26;13.60;65.70
27671;DHT22;15077;49.704;9.908;2023-04-24T07:26:52;13.60;65.70
27671;DHT22;15077;49.704;9.908;2023-04-24T07:29:19;13.70;65.60
27671;DHT22;15077;49.704;9.908;2023-04-24T07:31:46;13.70;65.60
27671;DHT22;15077;49.704;9.908;2023-04-24T07:34:12;13.70;65.30
27671;DHT22;15077;49.704;9.908;2023-04-24T07:36:38;13.80;65.40
27671;DHT22;15077;49.704;9.908;2023-04-24T07:39:04;13.80;65.40
27671;DHT22;15077;49.704;9.908;2023-04-24T07:41:31;13.80;65.30
27671;DHT22;15077;49.704;9.908;2023-04-24T07:43:57;13.90;65.30
27671;DHT22;15077;49.704;9.908;2023-04-24T07:46:24;13.90;65.20
27671;DHT22;15077;49.704;9.908;2023-04-24T07:48:50;13.90;65.00
27671;DHT22;15077;49.704;9.908;2023-04-24T07:51:16;13.90;64.80
27671;DHT22;15077;49.704;9.908;2023-04-24T07:53:42;13.90;64.90
27671;DHT22;15077;49.704;9.908;2023-04-24T07:56:09;13.90;64.40
27671;DHT22;15077;49.704;9.908;2023-04-24T07:58:35;13.90;64.40
27671;DHT22;15077;49.704;9.908;2023-04-24T08:01:01;13.90;64.20
27671;DHT22;15077;49.704;9.908;2023-04-24T08:03:27;13.90;64.20
27671;DHT22;15077;49.704;9.908;2023-04-24T08:05:52;13.90;64.10
27671;DHT22;15077;49.704;9.908;2023-04-24T08:08:21;13.90;64.00
27671;DHT22;15077;49.704;9.908;2023-04-24T08:10:48;13.90;64.00
27671;DHT22;15077;49.704;9.908;2023-04-24T08:13:15;13.90;63.90
27671;DHT22;15077;49.704;9.908;2023-04-24T08:15:40;13.90;63.40
27671;DHT22;15077;49.704;9.908;2023-04-24T08:18:06;13.90;63.50
27671;DHT22;15077;49.704;9.908;2023-04-24T08:20:32;13.90;63.40
27671;DHT22;15077;49.704;9.908;2023-04-24T08:22:58;13.80;63.20
27671;DHT22;15077;49.704;9.908;2023-04-24T08:25:24;13.80;63.40
27671;DHT22;15077;49.704;9.908;2023-04-24T08:27:50;13.80;63.30
27671;DHT22;15077;49.704;9.908;2023-04-24T08:30:17;13.80;63.50
27671;DHT22;15077;49.704;9.908;2023-04-24T08:32:43;13.80;63.70
27671;DHT22;15077;49.704;9.908;2023-04-24T08:35:09;13.80;63.80
27671;DHT22;15077;49.704;9.908;2023-04-24T08:37:35;13.80;63.90
27671;DHT22;15077;49.704;9.908;2023-04-24T08:40:15;13.80;64.00
27671;DHT22;15077;49.704;9.908;2023-04-24T08:42:43;13.80;64.20
27671;DHT22;15077;49.704;9.908;2023-04-24T08:45:10;13.80;64.20
27671;DHT22;15077;49.704;9.908;2023-04-24T08:47:40;13.80;64.10
27671;DHT22;15077;49.704;9.908;2023-04-24T08:50:08;13.80;63.90
27671;DHT22;15077;49.704;9.908;2023-04-24T08:52:35;13.70;63.80
27671;DHT22;15077;49.704;9.908;2023-04-24T08:55:02;13.70;63.90
27671;DHT22;15077;49.704;9.908;2023-04-24T08:57:28;13.60;63.90
27671;DHT22;15077;49.704;9.908;2023-04-24T08:59:56;13.60;63.80
27671;DHT22;15077;49.704;9.908;2023-04-24T09:02:23;13.60;64.00
27671;DHT22;15077;49.704;9.908;2023-04-24T09:04:50;13.60;64.10
27671;DHT22;15077;49.704;9.908;2023-04-24T09:07:17;13.50;63.50
27671;DHT22;15077;49.704;9.908;2023-04-24T09:09:45;13.50;63.50
27671;DHT22;15077;49.704;9.908;2023-04-24T09:12:11;13.50;63.50
27671;DHT22;15077;49.704;9.908;2023-04-24T09:14:37;13.50;63.50
27671;DHT22;15077;49.704;9.908;2023-04-24T09:17:07;13.50;63.70
27671;DHT22;15077;49.704;9.908;2023-04-24T09:19:33;13.50;63.90
27671;DHT22;15077;49.704;9.908;2023-04-24T09:21:59;13.60;63.70
27671;DHT22;15077;49.704;9.908;2023-04-24T09:24:25;13.60;63.50
27671;DHT22;15077;49.704;9.908;2023-04-24T09:27:00;13.60;63.70
27671;DHT22;15077;49.704;9.908;2023-04-24T09:29:27;13.70;64.10
27671;DHT22;15077;49.704;9.908;2023-04-24T09:31:53;13.80;64.00
27671;DHT22;15077;49.704;9.908;2023-04-24T09:34:23;13.80;64.00
27671;DHT22;15077;49.704;9.908;2023-04-24T09:36:51;13.90;64.40
27671;DHT22;15077;49.704;9.908;2023-04-24T09:39:20;14.10;64.20
27671;DHT22;15077;49.704;9.908;2023-04-24T09:41:53;14.20;64.20
27671;DHT22;15077;49.704;9.908;2023-04-24T09:44:26;14.30;63.20
27671;DHT22;15077;49.704;9.908;2023-04-24T09:46:54;14.40;63.40
27671;DHT22;15077;49.704;9.908;2023-04-24T09:49:33;14.50;62.50
27671;DHT22;15077;49.704;9.908;2023-04-24T09:52:06;14.50;63.00
27671;DHT22;15077;49.704;9.908;2023-04-24T09:54:33;14.60;63.30
27671;DHT22;15077;49.704;9.908;2023-04-24T09:56:59;14.70;61.80
27671;DHT22;15077;49.704;9.908;2023-04-24T09:59:27;14.80;61.60
27671;DHT22;15077;49.704;9.908;2023-04-24T10:01:55;14.80;61.90
27671;DHT22;15077;49.704;9.908;2023-04-24T10:04:22;14.90;61.10
27671;DHT22;15077;49.704;9.908;2023-04-24T10:06:50;14.90;60.70
27671;DHT22;15077;49.704;9.908;2023-04-24T10:09:19;14.90;60.40
27671;DHT22;15077;49.704;9.908;2023-04-24T10:11:49;14.90;59.70
27671;DHT22;15077;49.704;9.908;2023-04-24T10:14:18;14.90;59.70
27671;DHT22;15077;49.704;9.908;2023-04-24T10:16:46;14.90;59.50
27671;DHT22;15077;49.704;9.908;2023-04-24T10:19:17;14.80;60.00
27671;DHT22;15077;49.704;9.908;2023-04-24T10:21:45;14.90;60.10
27671;DHT22;15077;49.704;9.908;2023-04-24T10:24:17;15.00;60.60
27671;DHT22;15077;49.704;9.908;2023-04-24T10:26:45;15.00;60.10
27671;DHT22;15077;49.704;9.908;2023-04-24T10:29:14;15.10;59.10
27671;DHT22;15077;49.704;9.908;2023-04-24T10:31:45;15.10;58.80
27671;DHT22;15077;49.704;9.908;2023-04-24T10:34:12;15.20;58.80
27671;DHT22;15077;49.704;9.908;2023-04-24T10:36:45;15.20;59.20
27671;DHT22;15077;49.704;9.908;2023-04-24T10:39:16;15.20;58.40
27671;DHT22;15077;49.704;9.908;2023-04-24T10:41:43;15.30;58.70
27671;DHT22;15077;49.704;9.908;2023-04-24T10:44:13;15.30;59.50
27671;DHT22;15077;49.704;9.908;2023-04-24T10:46:44;15.30;58.60
27671;DHT22;15077;49.704;9.908;2023-04-24T10:49:11;15.30;58.40
27671;DHT22;15077;49.704;9.908;2023-04-24T10:51:53;15.30;57.80
27671;DHT22;15077;49.704;9.908;2023-04-24T10:57:25;15.30;58.20
27671;DHT22;15077;49.704;9.908;2023-04-24T10:59:51;15.30;58.10
27671;DHT22;15077;49.704;9.908;2023-04-24T11:02:38;15.30;58.50
27671;DHT22;15077;49.704;9.908;2023-04-24T11:05:09;15.30;58.50
27671;DHT22;15077;49.704;9.908;2023-04-24T11:13:24;15.20;58.40
27671;DHT22;15077;49.704;9.908;2023-04-24T11:21:41;15.10;57.70
27671;DHT22;15077;49.704;9.908;2023-04-24T11:27:18;14.90;58.60
27671;DHT22;15077;49.704;9.908;2023-04-24T11:37:46;15.00;59.40
27671;DHT22;15077;49.704;9.908;2023-04-24T11:40:18;15.10;59.10
27671;DHT22;15077;49.704;9.908;2023-04-24T11:42:50;15.10;58.80
27671;DHT22;15077;49.704;9.908;2023-04-24T11:45:25;15.20;58.60
27671;DHT22;15077;49.704;9.908;2023-04-24T11:47:53;15.20;58.20
27671;DHT22;15077;49.704;9.908;2023-04-24T11:50:21;15.10;58.50
27671;DHT22;15077;49.704;9.908;2023-04-24T11:52:49;15.10;59.00
27671;DHT22;15077;49.704;9.908;2023-04-24T11:57:46;15.10;60.00
27671;DHT22;15077;49.704;9.908;2023-04-24T12:00:17;15.10;60.40
27671;DHT22;15077;49.704;9.908;2023-04-24T12:02:44;15.10;60.60
27671;DHT22;15077;49.704;9.908;2023-04-24T12:05:40;15.00;60.80
27671;DHT22;15077;49.704;9.908;2023-04-24T12:08:05;15.00;60.90
27671;DHT22;15077;49.704;9.908;2023-04-24T12:10:32;15.00;61.20
27671;DHT22;15077;49.704;9.908;2023-04-24T12:13:00;15.00;61.00
27671;DHT22;15077;49.704;9.908;2023-04-24T12:15:26;15.10;61.00
27671;DHT22;15077;49.704;9.908;2023-04-24T12:17:54;15.10;61.10
27671;DHT22;15077;49.704;9.908;2023-04-24T12:20:26;15.10;60.00
27671;DHT22;15077;49.704;9.908;2023-04-24T12:22:55;15.20;60.40
27671;DHT22;15077;49.704;9.908;2023-04-24T12:25:26;15.30;60.10
27671;DHT22;15077;49.704;9.908;2023-04-24T12:30:33;15.40;58.70
27671;DHT22;15077;49.704;9.908;2023-04-24T12:33:02;15.40;59.00
27671;DHT22;15077;49.704;9.908;2023-04-24T12:35:30;15.50;59.00
27671;DHT22;15077;49.704;9.908;2023-04-24T12:38:16;15.50;58.80
27671;DHT22;15077;49.704;9.908;2023-04-24T12:40:43;15.60;59.20
27671;DHT22;15077;49.704;9.908;2023-04-24T12:43:19;15.70;59.10
27671;DHT22;15077;49.704;9.908;2023-04-24T12:45:49;15.70;59.40
27671;DHT22;15077;49.704;9.908;2023-04-24T12:48:14;15.80;59.20
27671;DHT22;15077;49.704;9.908;2023-04-24T12:50:40;15.80;58.60
27671;DHT22;15077;49.704;9.908;2023-04-24T12:53:08;15.80;58.20
27671;DHT22;15077;49.704;9.908;2023-04-24T12:55:34;15.80;58.60
27671;DHT22;15077;49.704;9.908;2023-04-24T12:58:00;15.80;58.40
27671;DHT22;15077;49.704;9.908;2023-04-24T13:00:27;15.80;57.90
27671;DHT22;15077;49.704;9.908;2023-04-24T13:02:53;15.80;57.10
27671;DHT22;15077;49.704;9.908;2023-04-24T13:05:19;15.70;57.00
27671;DHT22;15077;49.704;9.908;2023-04-24T13:07:44;15.70;57.20
27671;DHT22;15077;49.704;9.908;2023-04-24T13:10:10;15.70;56.70
27671;DHT22;15077;49.704;9.908;2023-04-24T13:12:36;15.70;57.40
27671;DHT22;15077;49.704;9.908;2023-04-24T13:15:03;15.70;57.50
27671;DHT22;15077;49.704;9.908;2023-04-24T13:17:29;15.70;57.70
27671;DHT22;15077;49.704;9.908;2023-04-24T13:19:55;15.70;57.60
27671;DHT22;15077;49.704;9.908;2023-04-24T13:22:21;15.80;56.90
27671;DHT22;15077;49.704;9.908;2023-04-24T13:24:47;15.80;57.00
27671;DHT22;15077;49.704;9.908;2023-04-24T13:27:17;15.80;57.40
27671;DHT22;15077;49.704;9.908;2023-04-24T13:29:43;15.80;57.20
27671;DHT22;15077;49.704;9.908;2023-04-24T13:32:09;15.90;57.00
27671;DHT22;15077;49.704;9.908;2023-04-24T13:34:35;15.90;57.20
27671;DHT22;15077;49.704;9.908;2023-04-24T13:37:03;16.00;57.20
27671;DHT22;15077;49.704;9.908;2023-04-24T13:39:29;16.10;57.50
27671;DHT22;15077;49.704;9.908;2023-04-24T13:41:56;16.20;57.80
27671;DHT22;15077;49.704;9.908;2023-04-24T13:44:23;16.30;57.60
27671;DHT22;15077;49.704;9.908;2023-04-24T13:46:51;16.40;57.70
27671;DHT22;15077;49.704;9.908;2023-04-24T13:49:20;16.40;56.90
27671;DHT22;15077;49.704;9.908;2023-04-24T13:51:47;16.50;56.30
27671;DHT22;15077;49.704;9.908;2023-04-24T13:54:13;16.50;56.10
27671;DHT22;15077;49.704;9.908;2023-04-24T13:56:42;16.50;55.40
27671;DHT22;15077;49.704;9.908;2023-04-24T13:59:08;16.40;55.70
27671;DHT22;15077;49.704;9.908;2023-04-24T14:01:34;16.40;55.40
27671;DHT22;15077;49.704;9.908;2023-04-24T14:04:00;16.30;55.30
27671;DHT22;15077;49.704;9.908;2023-04-24T14:06:26;16.30;55.40
27671;DHT22;15077;49.704;9.908;2023-04-24T14:08:52;16.20;55.50
27671;DHT22;15077;49.704;9.908;2023-04-24T14:11:18;16.10;56.10
27671;DHT22;15077;49.704;9.908;2023-04-24T14:13:45;16.00;56.20
27671;DHT22;15077;49.704;9.908;2023-04-24T14:16:12;15.90;56.60
27671;DHT22;15077;49.704;9.908;2023-04-24T14:18:38;15.80;56.90
27671;DHT22;15077;49.704;9.908;2023-04-24T14:21:04;15.70;57.90
27671;DHT22;15077;49.704;9.908;2023-04-24T14:23:31;15.60;57.60
27671;DHT22;15077;49.704;9.908;2023-04-24T14:26:00;15.50;57.90
27671;DHT22;15077;49.704;9.908;2023-04-24T14:28:26;15.40;58.30
27671;DHT22;15077;49.704;9.908;2023-04-24T14:30:52;15.30;58.80
27671;DHT22;15077;49.704;9.908;2023-04-24T14:33:18;15.30;59.40
27671;DHT22;15077;49.704;9.908;2023-04-24T14:35:44;15.30;59.40
27671;DHT22;15077;49.704;9.908;2023-04-24T14:38:10;15.30;59.30
27671;DHT22;15077;49.704;9.908;2023-04-24T14:40:37;15.40;59.10
27671;DHT22;15077;49.704;9.908;2023-04-24T14:43:03;15.50;58.80
27671;DHT22;15077;49.704;9.908;2023-04-24T14:45:29;15.50;59.00
27671;DHT22;15077;49.704;9.908;2023-04-24T14:47:55;15.60;58.10
27671;DHT22;15077;49.704;9.908;2023-04-24T14:50:21;15.70;57.50
27671;DHT22;15077;49.704;9.908;2023-04-24T14:52:47;15.70;57.00
27671;DHT22;15077;49.704;9.908;2023-04-24T14:55:13;15.70;56.90
27671;DHT22;15077;49.704;9.908;2023-04-24T14:57:39;15.70;56.90
27671;DHT22;15077;49.704;9.908;2023-04-24T15:00:06;15.70;56.70
27671;DHT22;15077;49.704;9.908;2023-04-24T15:02:35;15.70;57.00
27671;DHT22;15077;49.704;9.908;2023-04-24T15:05:05;15.70;57.70
27671;DHT22;15077;49.704;9.908;2023-04-24T15:07:32;15.70;57.10
27671;DHT22;15077;49.704;9.908;2023-04-24T15:09:58;15.80;56.90
27671;DHT22;15077;49.704;9.908;2023-04-24T15:12:24;15.80;56.60
27671;DHT22;15077;49.704;9.908;2023-04-24T15:14:50;15.80;56.70
27671;DHT22;15077;49.704;9.908;2023-04-24T15:17:16;15.80;56.10
27671;DHT22;15077;49.704;9.908;2023-04-24T15:19:41;15.80;56.60
27671;DHT22;15077;49.704;9.908;2023-04-24T15:22:07;15.80;56.30
27671;DHT22;15077;49.704;9.908;2023-04-24T15:24:33;15.80;56.80
27671;DHT22;15077;49.704;9.908;2023-04-24T15:26:59;15.80;56.70
27671;DHT22;15077;49.704;9.908;2023-04-24T15:29:27;15.90;56.40
27671;DHT22;15077;49.704;9.908;2023-04-24T15:31:53;15.90;56.70
27671;DHT22;15077;49.704;9.908;2023-04-24T15:34:19;15.90;56.70
27671;DHT22;15077;49.704;9.908;2023-04-24T15:36:45;15.90;56.10
27671;DHT22;15077;49.704;9.908;2023-04-24T15:39:11;15.90;56.00
27671;DHT22;15077;49.704;9.908;2023-04-24T15:41:37;15.80;55.80
27671;DHT22;15077;49.704;9.908;2023-04-24T15:44:02;15.80;55.80
27671;DHT22;15077;49.704;9.908;2023-04-24T15:46:28;15.70;55.70
27671;DHT22;15077;49.704;9.908;2023-04-24T15:48:54;15.70;56.10
27671;DHT22;15077;49.704;9.908;2023-04-24T15:51:20;15.60;55.70
27671;DHT22;15077;49.704;9.908;2023-04-24T15:53:46;15.60;55.90
27671;DHT22;15077;49.704;9.908;2023-04-24T15:56:12;15.60;56.10
27671;DHT22;15077;49.704;9.908;2023-04-24T15:58:38;15.60;55.80